sensor_id;sensor_type;location;lat;lon;timestamp;P1;durP1;ratioP1;P2;durP2;ratioP2
10963;SDS011;5534;48.784;9.190;2023-04-21T00:01:03;9.50;;;7.10;;
10963;SDS011;5534;48.784;9.190;2023-04-21T00:03:32;8.80;;;7.03;;
10963;SDS011;5534;48.784;9.190;2023-04-21T00:06:02;9.03;;;7.37;;
10963;SDS011;5534;48.784;9.190;2023-04-21T00:08:33;9.03;;;7.43;;
10963;SDS011;5534;48.784;9.190;2023-04-21T00:11:05;8.63;;;7.33;;
10963;SDS011;5534;48.784;9.190;2023-04-21T00:13:33;10.77;;;7.93;;
10963;SDS011;5534;48.784;9.190;2023-04-21T00:16:00;10.93;;;8.47;;
10963;SDS011;5534;48.784;9.190;2023-04-21T00:18:26;11.80;;;9.27;;
10963;SDS011;5534;48.784;9.190;2023-04-21T00:20:52;13.10;;;9.63;;
10963;SDS011;5534;48.784;9.190;2023-04-21T00:23:18;13.10;;;10.23;;
10963;SDS011;5534;48.784;9.190;2023-04-21T00:25:44;13.03;;;10.37;;
10963;SDS011;5534;48.784;9.190;2023-04-21T00:28:10;15.40;;;9.90;;
10963;SDS011;5534;48.784;9.190;2023-04-21T00:30:35;13.37;;;9.50;;
10963;SDS011;5534;48.784;9.190;2023-04-21T00:33:01;12.60;;;9.67;;
10963;SDS011;5534;48.784;9.190;2023-04-21T00:35:27;12.40;;;9.80;;
10963;SDS011;5534;48.784;9.190;2023-04-21T00:37:53;12.43;;;9.33;;
10963;SDS011;5534;48.784;9.190;2023-04-21T00:40:19;12.60;;;9.37;;
10963;SDS011;5534;48.784;9.190;2023-04-21T00:42:47;11.60;;;8.43;;
10963;SDS011;5534;48.784;9.190;2023-04-21T00:45:13;11.73;;;9.27;;
10963;SDS011;5534;48.784;9.190;2023-04-21T00:47:39;16.90;;;8.63;;
10963;SDS011;5534;48.784;9.190;2023-04-21T00:50:06;14.03;;;10.47;;
10963;SDS011;5534;48.784;9.190;2023-04-21T00:52:32;14.23;;;10.40;;
10963;SDS011;5534;48.784;9.190;2023-04-21T00:54:59;14.60;;;9.90;;
10963;SDS011;5534;48.784;9.190;2023-04-21T00:57:26;13.80;;;10.23;;
10963;SDS011;5534;48.784;9.190;2023-04-21T00:59:55;15.23;;;10.43;;
10963;SDS011;5534;48.784;9.190;2023-04-21T01:02:20;13.30;;;9.70;;
10963;SDS011;5534;48.784;9.190;2023-04-21T01:04:47;12.07;;;9.20;;
10963;SDS011;5534;48.784;9.190;2023-04-21T01:07:13;12.47;;;9.97;;
10963;SDS011;5534;48.784;9.190;2023-04-21T01:09:38;10.93;;;9.00;;
10963;SDS011;5534;48.784;9.190;2023-04-21T01:12:08;12.47;;;9.77;;
10963;SDS011;5534;48.784;9.190;2023-04-21T01:14:36;12.57;;;9.83;;
10963;SDS011;5534;48.784;9.190;2023-04-21T01:17:03;13.50;;;9.67;;
10963;SDS011;5534;48.784;9.190;2023-04-21T01:19:40;13.07;;;9.80;;
10963;SDS011;5534;48.784;9.190;2023-04-21T01:22:07;11.60;;;9.20;;
10963;SDS011;5534;48.784;9.190;2023-04-21T01:24:40;11.47;;;8.80;;
10963;SDS011;5534;48.784;9.190;2023-04-21T01:27:08;13.67;;;10.07;;
10963;SDS011;5534;48.784;9.190;2023-04-21T01:29:45;12.80;;;9.80;;
10963;SDS011;5534;48.784;9.190;2023-04-21T01:32:17;12.60;;;9.23;;
10963;SDS011;5534;48.784;9.190;2023-04-21T01:34:44;11.27;;;8.97;;
10963;SDS011;5534;48.784;9.190;2023-04-21T01:37:11;11.07;;;8.30;;
10963;SDS011;5534;48.784;9.190;2023-04-21T01:39:40;11.07;;;8.47;;
10963;SDS011;5534;48.784;9.190;2023-04-21T01:42:08;10.87;;;8.43;;
10963;SDS011;5534;48.784;9.190;2023-04-21T01:44:34;10.10;;;8.60;;
10963;SDS011;5534;48.784;9.190;2023-04-21T01:47:01;13.57;;;8.33;;
10963;SDS011;5534;48.784;9.190;2023-04-21T01:49:26;10.97;;;8.03;;
10963;SDS011;5534;48.784;9.190;2023-04-21T01:51:52;11.13;;;8.07;;
10963;SDS011;5534;48.784;9.190;2023-04-21T01:54:18;10.70;;;7.73;;
10963;SDS011;5534;48.784;9.190;2023-04-21T01:56:44;10.57;;;7.80;;
10963;SDS011;5534;48.784;9.190;2023-04-21T01:59:10;12.40;;;8.47;;
10963;SDS011;5534;48.784;9.190;2023-04-21T02:01:35;12.10;;;8.63;;
10963;SDS011;5534;48.784;9.190;2023-04-21T02:04:02;11.33;;;8.43;;
10963;SDS011;5534;48.784;9.190;2023-04-21T02:06:28;11.30;;;8.57;;
10963;SDS011;5534;48.784;9.190;2023-04-21T02:08:55;12.70;;;8.20;;
10963;SDS011;5534;48.784;9.190;2023-04-21T02:11:22;10.20;;;8.07;;
10963;SDS011;5534;48.784;9.190;2023-04-21T02:13:50;11.50;;;9.13;;
10963;SDS011;5534;48.784;9.190;2023-04-21T02:16:17;12.77;;;9.87;;
10963;SDS011;5534;48.784;9.190;2023-04-21T02:18:44;13.77;;;8.93;;
10963;SDS011;5534;48.784;9.190;2023-04-21T02:21:11;13.17;;;9.53;;
10963;SDS011;5534;48.784;9.190;2023-04-21T02:23:37;12.30;;;8.97;;
10963;SDS011;5534;48.784;9.190;2023-04-21T02:26:02;13.57;;;8.97;;
10963;SDS011;5534;48.784;9.190;2023-04-21T02:28:28;12.83;;;9.13;;
10963;SDS011;5534;48.784;9.190;2023-04-21T02:30:55;13.53;;;9.30;;
10963;SDS011;5534;48.784;9.190;2023-04-21T02:33:21;11.67;;;8.73;;
10963;SDS011;5534;48.784;9.190;2023-04-21T02:35:47;10.93;;;8.90;;
10963;SDS011;5534;48.784;9.190;2023-04-21T02:38:13;10.97;;;8.90;;
10963;SDS011;5534;48.784;9.190;2023-04-21T02:40:39;10.63;;;8.30;;
10963;SDS011;5534;48.784;9.190;2023-04-21T02:43:05;11.27;;;8.60;;
10963;SDS011;5534;48.784;9.190;2023-04-21T02:45:30;11.10;;;8.73;;
10963;SDS011;5534;48.784;9.190;2023-04-21T02:47:56;10.47;;;8.87;;
10963;SDS011;5534;48.784;9.190;2023-04-21T02:50:23;12.30;;;8.53;;
10963;SDS011;5534;48.784;9.190;2023-04-21T02:52:49;11.70;;;9.23;;
10963;SDS011;5534;48.784;9.190;2023-04-21T02:55:15;10.87;;;8.43;;
10963;SDS011;5534;48.784;9.190;2023-04-21T02:57:41;12.03;;;8.63;;
10963;SDS011;5534;48.784;9.190;2023-04-21T03:00:06;14.77;;;9.07;;
10963;SDS011;5534;48.784;9.190;2023-04-21T03:02:35;13.00;;;9.67;;
10963;SDS011;5534;48.784;9.190;2023-04-21T03:05:01;15.37;;;10.07;;
10963;SDS011;5534;48.784;9.190;2023-04-21T03:07:28;11.57;;;9.43;;
10963;SDS011;5534;48.784;9.190;2023-04-21T03:09:54;10.87;;;9.03;;
10963;SDS011;5534;48.784;9.190;2023-04-21T03:12:19;13.90;;;9.23;;
10963;SDS011;5534;48.784;9.190;2023-04-21T03:14:45;12.90;;;9.50;;
10963;SDS011;5534;48.784;9.190;2023-04-21T03:17:11;13.70;;;9.87;;
10963;SDS011;5534;48.784;9.190;2023-04-21T03:19:37;13.50;;;9.77;;
10963;SDS011;5534;48.784;9.190;2023-04-21T03:22:03;12.07;;;9.03;;
10963;SDS011;5534;48.784;9.190;2023-04-21T03:24:28;11.03;;;9.00;;
10963;SDS011;5534;48.784;9.190;2023-04-21T03:26:54;10.83;;;8.80;;
10963;SDS011;5534;48.784;9.190;2023-04-21T03:29:21;13.13;;;9.17;;
10963;SDS011;5534;48.784;9.190;2023-04-21T03:31:47;13.27;;;9.73;;
10963;SDS011;5534;48.784;9.190;2023-04-21T03:34:13;15.17;;;10.63;;
10963;SDS011;5534;48.784;9.190;2023-04-21T03:36:39;11.50;;;9.17;;
10963;SDS011;5534;48.784;9.190;2023-04-21T03:39:04;13.93;;;9.43;;
10963;SDS011;5534;48.784;9.190;2023-04-21T03:41:32;13.90;;;9.97;;
10963;SDS011;5534;48.784;9.190;2023-04-21T03:43:58;12.17;;;8.77;;
10963;SDS011;5534;48.784;9.190;2023-04-21T03:46:23;12.10;;;8.80;;
10963;SDS011;5534;48.784;9.190;2023-04-21T03:48:49;12.23;;;9.67;;
10963;SDS011;5534;48.784;9.190;2023-04-21T03:51:15;12.93;;;9.27;;
10963;SDS011;5534;48.784;9.190;2023-04-21T03:53:41;12.70;;;10.00;;
10963;SDS011;5534;48.784;9.190;2023-04-21T03:56:07;13.23;;;10.30;;
10963;SDS011;5534;48.784;9.190;2023-04-21T03:58:35;14.27;;;9.63;;
10963;SDS011;5534;48.784;9.190;2023-04-21T04:01:01;12.40;;;9.37;;
10963;SDS011;5534;48.784;9.190;2023-04-21T04:03:29;12.40;;;9.20;;
10963;SDS011;5534;48.784;9.190;2023-04-21T04:05:55;12.90;;;9.77;;
10963;SDS011;5534;48.784;9.190;2023-04-21T04:08:20;14.30;;;9.37;;
10963;SDS011;5534;48.784;9.190;2023-04-21T04:10:46;12.67;;;9.40;;
10963;SDS011;5534;48.784;9.190;2023-04-21T04:13:12;12.70;;;9.93;;
10963;SDS011;5534;48.784;9.190;2023-04-21T04:15:37;13.90;;;9.30;;
10963;SDS011;5534;48.784;9.190;2023-04-21T04:18:03;12.60;;;9.33;;
10963;SDS011;5534;48.784;9.190;2023-04-21T04:20:30;11.53;;;9.03;;
10963;SDS011;5534;48.784;9.190;2023-04-21T04:22:55;13.10;;;9.93;;
10963;SDS011;5534;48.784;9.190;2023-04-21T04:25:21;13.93;;;9.23;;
10963;SDS011;5534;48.784;9.190;2023-04-21T04:27:47;12.80;;;9.43;;
10963;SDS011;5534;48.784;9.190;2023-04-21T04:30:14;13.33;;;10.33;;
10963;SDS011;5534;48.784;9.190;2023-04-21T04:32:40;13.20;;;9.47;;
10963;SDS011;5534;48.784;9.190;2023-04-21T04:35:07;12.20;;;9.53;;
10963;SDS011;5534;48.784;9.190;2023-04-21T04:37:37;13.47;;;9.07;;
10963;SDS011;5534;48.784;9.190;2023-04-21T04:40:04;13.00;;;9.53;;
10963;SDS011;5534;48.784;9.190;2023-04-21T04:42:31;15.17;;;9.70;;
10963;SDS011;5534;48.784;9.190;2023-04-21T04:45:00;14.77;;;9.90;;
10963;SDS011;5534;48.784;9.190;2023-04-21T04:47:27;14.73;;;9.30;;
10963;SDS011;5534;48.784;9.190;2023-04-21T04:49:53;13.27;;;9.47;;
10963;SDS011;5534;48.784;9.190;2023-04-21T04:52:19;12.67;;;9.67;;
10963;SDS011;5534;48.784;9.190;2023-04-21T04:54:44;12.70;;;9.30;;
10963;SDS011;5534;48.784;9.190;2023-04-21T04:57:10;12.23;;;9.60;;
10963;SDS011;5534;48.784;9.190;2023-04-21T04:59:36;12.90;;;10.07;;
10963;SDS011;5534;48.784;9.190;2023-04-21T05:02:02;11.63;;;8.83;;
10963;SDS011;5534;48.784;9.190;2023-04-21T05:04:28;12.20;;;8.70;;
10963;SDS011;5534;48.784;9.190;2023-04-21T05:06:54;13.73;;;9.07;;
10963;SDS011;5534;48.784;9.190;2023-04-21T05:09:19;12.23;;;9.40;;
10963;SDS011;5534;48.784;9.190;2023-04-21T05:11:45;13.10;;;9.10;;
10963;SDS011;5534;48.784;9.190;2023-04-21T05:14:11;11.93;;;9.40;;
10963;SDS011;5534;48.784;9.190;2023-04-21T05:16:37;11.50;;;8.73;;
10963;SDS011;5534;48.784;9.190;2023-04-21T05:19:02;12.27;;;9.20;;
10963;SDS011;5534;48.784;9.190;2023-04-21T05:21:28;13.53;;;9.73;;
10963;SDS011;5534;48.784;9.190;2023-04-21T05:23:56;11.30;;;8.50;;
10963;SDS011;5534;48.784;9.190;2023-04-21T05:26:23;13.70;;;9.43;;
10963;SDS011;5534;48.784;9.190;2023-04-21T05:28:49;13.50;;;10.03;;
10963;SDS011;5534;48.784;9.190;2023-04-21T05:31:15;14.50;;;9.77;;
10963;SDS011;5534;48.784;9.190;2023-04-21T05:33:41;14.53;;;9.53;;
10963;SDS011;5534;48.784;9.190;2023-04-21T05:36:07;14.27;;;10.27;;
10963;SDS011;5534;48.784;9.190;2023-04-21T05:38:34;13.53;;;10.13;;
10963;SDS011;5534;48.784;9.190;2023-04-21T05:41:01;14.87;;;11.03;;
10963;SDS011;5534;48.784;9.190;2023-04-21T05:43:27;14.33;;;10.60;;
10963;SDS011;5534;48.784;9.190;2023-04-21T05:45:53;15.30;;;11.20;;
10963;SDS011;5534;48.784;9.190;2023-04-21T05:48:19;16.83;;;11.00;;
10963;SDS011;5534;48.784;9.190;2023-04-21T05:50:45;15.57;;;11.43;;
10963;SDS011;5534;48.784;9.190;2023-04-21T05:53:10;14.80;;;10.97;;
10963;SDS011;5534;48.784;9.190;2023-04-21T05:55:36;18.40;;;11.93;;
10963;SDS011;5534;48.784;9.190;2023-04-21T05:58:02;17.57;;;12.50;;
10963;SDS011;5534;48.784;9.190;2023-04-21T06:00:28;16.00;;;12.13;;
10963;SDS011;5534;48.784;9.190;2023-04-21T06:02:54;20.40;;;12.63;;
10963;SDS011;5534;48.784;9.190;2023-04-21T06:05:20;18.57;;;12.60;;
10963;SDS011;5534;48.784;9.190;2023-04-21T06:07:46;17.67;;;12.37;;
10963;SDS011;5534;48.784;9.190;2023-04-21T06:10:12;18.10;;;12.53;;
10963;SDS011;5534;48.784;9.190;2023-04-21T06:12:38;31.43;;;19.80;;
10963;SDS011;5534;48.784;9.190;2023-04-21T06:15:04;18.27;;;12.63;;
10963;SDS011;5534;48.784;9.190;2023-04-21T06:17:31;16.13;;;12.40;;
10963;SDS011;5534;48.784;9.190;2023-04-21T06:19:56;16.97;;;12.00;;
10963;SDS011;5534;48.784;9.190;2023-04-21T06:22:22;19.00;;;12.80;;
10963;SDS011;5534;48.784;9.190;2023-04-21T06:24:48;18.97;;;13.97;;
10963;SDS011;5534;48.784;9.190;2023-04-21T06:27:15;19.67;;;12.63;;
10963;SDS011;5534;48.784;9.190;2023-04-21T06:29:41;19.57;;;12.67;;
10963;SDS011;5534;48.784;9.190;2023-04-21T06:32:07;19.57;;;13.77;;
10963;SDS011;5534;48.784;9.190;2023-04-21T06:34:34;18.50;;;13.27;;
10963;SDS011;5534;48.784;9.190;2023-04-21T06:37:00;19.00;;;13.80;;
10963;SDS011;5534;48.784;9.190;2023-04-21T06:39:26;19.10;;;13.37;;
10963;SDS011;5534;48.784;9.190;2023-04-21T06:41:52;17.33;;;12.60;;
10963;SDS011;5534;48.784;9.190;2023-04-21T06:44:19;21.40;;;13.40;;
10963;SDS011;5534;48.784;9.190;2023-04-21T06:46:45;21.97;;;13.87;;
10963;SDS011;5534;48.784;9.190;2023-04-21T06:49:11;21.30;;;13.80;;
10963;SDS011;5534;48.784;9.190;2023-04-21T06:51:37;19.63;;;13.03;;
10963;SDS011;5534;48.784;9.190;2023-04-21T06:54:03;20.67;;;13.37;;
10963;SDS011;5534;48.784;9.190;2023-04-21T06:56:30;21.70;;;13.50;;
10963;SDS011;5534;48.784;9.190;2023-04-21T06:58:57;21.03;;;14.27;;
10963;SDS011;5534;48.784;9.190;2023-04-21T07:01:23;21.70;;;14.47;;
10963;SDS011;5534;48.784;9.190;2023-04-21T07:03:49;21.70;;;14.40;;
10963;SDS011;5534;48.784;9.190;2023-04-21T07:06:15;20.17;;;14.13;;
10963;SDS011;5534;48.784;9.190;2023-04-21T07:08:41;18.33;;;12.57;;
10963;SDS011;5534;48.784;9.190;2023-04-21T07:11:11;19.33;;;12.73;;
10963;SDS011;5534;48.784;9.190;2023-04-21T07:13:37;18.80;;;13.30;;
10963;SDS011;5534;48.784;9.190;2023-04-21T07:16:03;18.57;;;13.07;;
10963;SDS011;5534;48.784;9.190;2023-04-21T07:18:29;17.97;;;13.00;;
10963;SDS011;5534;48.784;9.190;2023-04-21T07:20:55;18.73;;;13.00;;
10963;SDS011;5534;48.784;9.190;2023-04-21T07:23:21;20.07;;;13.90;;
10963;SDS011;5534;48.784;9.190;2023-04-21T07:25:46;22.37;;;13.37;;
10963;SDS011;5534;48.784;9.190;2023-04-21T07:28:12;17.40;;;13.07;;
10963;SDS011;5534;48.784;9.190;2023-04-21T07:30:40;19.47;;;12.03;;
10963;SDS011;5534;48.784;9.190;2023-04-21T07:33:05;17.33;;;12.17;;
10963;SDS011;5534;48.784;9.190;2023-04-21T07:35:32;19.33;;;13.03;;
10963;SDS011;5534;48.784;9.190;2023-04-21T07:37:57;20.03;;;14.10;;
10963;SDS011;5534;48.784;9.190;2023-04-21T07:40:23;17.90;;;12.30;;
10963;SDS011;5534;48.784;9.190;2023-04-21T07:42:49;16.17;;;12.67;;
10963;SDS011;5534;48.784;9.190;2023-04-21T07:45:15;17.17;;;12.20;;
10963;SDS011;5534;48.784;9.190;2023-04-21T07:47:40;17.37;;;12.20;;
10963;SDS011;5534;48.784;9.190;2023-04-21T07:50:06;15.30;;;10.63;;
10963;SDS011;5534;48.784;9.190;2023-04-21T07:52:32;15.93;;;10.77;;
10963;SDS011;5534;48.784;9.190;2023-04-21T07:54:58;15.30;;;11.90;;
10963;SDS011;5534;48.784;9.190;2023-04-21T07:57:24;18.93;;;12.63;;
10963;SDS011;5534;48.784;9.190;2023-04-21T07:59:50;14.83;;;11.27;;
10963;SDS011;5534;48.784;9.190;2023-04-21T08:02:15;16.23;;;11.03;;
10963;SDS011;5534;48.784;9.190;2023-04-21T08:04:41;15.47;;;10.97;;
10963;SDS011;5534;48.784;9.190;2023-04-21T08:07:07;15.65;;;10.98;;
10963;SDS011;5534;48.784;9.190;2023-04-21T08:09:34;14.97;;;10.80;;
10963;SDS011;5534;48.784;9.190;2023-04-21T08:12:00;14.47;;;10.40;;
10963;SDS011;5534;48.784;9.190;2023-04-21T08:14:26;12.93;;;9.73;;
10963;SDS011;5534;48.784;9.190;2023-04-21T08:16:52;14.27;;;10.40;;
10963;SDS011;5534;48.784;9.190;2023-04-21T08:19:19;13.40;;;9.90;;
10963;SDS011;5534;48.784;9.190;2023-04-21T08:21:44;14.60;;;9.40;;
10963;SDS011;5534;48.784;9.190;2023-04-21T08:24:10;13.47;;;9.87;;
10963;SDS011;5534;48.784;9.190;2023-04-21T08:26:36;12.20;;;9.17;;
10963;SDS011;5534;48.784;9.190;2023-04-21T08:29:02;11.87;;;8.67;;
10963;SDS011;5534;48.784;9.190;2023-04-21T08:31:31;17.77;;;9.90;;
10963;SDS011;5534;48.784;9.190;2023-04-21T08:33:57;12.37;;;8.30;;
10963;SDS011;5534;48.784;9.190;2023-04-21T08:36:25;11.00;;;7.93;;
10963;SDS011;5534;48.784;9.190;2023-04-21T08:38:51;8.87;;;7.47;;
10963;SDS011;5534;48.784;9.190;2023-04-21T08:41:17;9.10;;;7.40;;
10963;SDS011;5534;48.784;9.190;2023-04-21T08:43:44;12.20;;;8.27;;
10963;SDS011;5534;48.784;9.190;2023-04-21T08:46:11;11.20;;;8.17;;
10963;SDS011;5534;48.784;9.190;2023-04-21T08:48:37;10.40;;;8.53;;
10963;SDS011;5534;48.784;9.190;2023-04-21T08:51:05;10.80;;;7.70;;
10963;SDS011;5534;48.784;9.190;2023-04-21T08:53:34;11.30;;;8.33;;
10963;SDS011;5534;48.784;9.190;2023-04-21T08:56:01;11.70;;;8.70;;
10963;SDS011;5534;48.784;9.190;2023-04-21T08:58:27;11.30;;;8.37;;
10963;SDS011;5534;48.784;9.190;2023-04-21T09:00:53;11.37;;;8.00;;
10963;SDS011;5534;48.784;9.190;2023-04-21T09:03:22;13.60;;;8.47;;
10963;SDS011;5534;48.784;9.190;2023-04-21T09:06:00;12.70;;;8.67;;
10963;SDS011;5534;48.784;9.190;2023-04-21T09:08:27;10.90;;;8.60;;
10963;SDS011;5534;48.784;9.190;2023-04-21T09:10:58;10.03;;;7.53;;
10963;SDS011;5534;48.784;9.190;2023-04-21T09:13:34;9.77;;;7.80;;
10963;SDS011;5534;48.784;9.190;2023-04-21T09:16:01;8.47;;;6.60;;
10963;SDS011;5534;48.784;9.190;2023-04-21T09:18:41;10.27;;;7.30;;
10963;SDS011;5534;48.784;9.190;2023-04-21T09:21:09;8.10;;;6.80;;
10963;SDS011;5534;48.784;9.190;2023-04-21T09:23:40;10.53;;;7.47;;
10963;SDS011;5534;48.784;9.190;2023-04-21T09:26:06;10.60;;;7.87;;
10963;SDS011;5534;48.784;9.190;2023-04-21T09:28:32;8.90;;;6.57;;
10963;SDS011;5534;48.784;9.190;2023-04-21T09:30:58;7.90;;;6.20;;
10963;SDS011;5534;48.784;9.190;2023-04-21T09:33:24;9.43;;;6.80;;
10963;SDS011;5534;48.784;9.190;2023-04-21T09:35:50;10.32;;;6.07;;
10963;SDS011;5534;48.784;9.190;2023-04-21T09:38:17;6.70;;;5.37;;
10963;SDS011;5534;48.784;9.190;2023-04-21T09:40:55;7.10;;;5.67;;
10963;SDS011;5534;48.784;9.190;2023-04-21T09:43:21;10.90;;;6.67;;
10963;SDS011;5534;48.784;9.190;2023-04-21T09:45:48;12.48;;;7.22;;
10963;SDS011;5534;48.784;9.190;2023-04-21T09:48:13;7.90;;;5.78;;
10963;SDS011;5534;48.784;9.190;2023-04-21T09:50:42;10.13;;;5.73;;
10963;SDS011;5534;48.784;9.190;2023-04-21T09:53:10;7.70;;;6.10;;
10963;SDS011;5534;48.784;9.190;2023-04-21T09:55:41;6.38;;;4.78;;
10963;SDS011;5534;48.784;9.190;2023-04-21T09:58:07;6.72;;;5.22;;
10963;SDS011;5534;48.784;9.190;2023-04-21T10:00:37;6.20;;;5.13;;
10963;SDS011;5534;48.784;9.190;2023-04-21T10:03:04;8.32;;;4.65;;
10963;SDS011;5534;48.784;9.190;2023-04-21T10:05:35;5.75;;;4.78;;
10963;SDS011;5534;48.784;9.190;2023-04-21T10:08:01;7.28;;;5.35;;
10963;SDS011;5534;48.784;9.190;2023-04-21T10:10:29;7.83;;;5.10;;
10963;SDS011;5534;48.784;9.190;2023-04-21T10:12:59;6.82;;;4.85;;
10963;SDS011;5534;48.784;9.190;2023-04-21T10:15:39;8.02;;;4.60;;
10963;SDS011;5534;48.784;9.190;2023-04-21T10:18:21;6.22;;;5.15;;
10963;SDS011;5534;48.784;9.190;2023-04-21T10:20:55;6.85;;;5.55;;
10963;SDS011;5534;48.784;9.190;2023-04-21T10:23:27;6.32;;;5.13;;
10963;SDS011;5534;48.784;9.190;2023-04-21T10:26:00;7.72;;;5.75;;
10963;SDS011;5534;48.784;9.190;2023-04-21T10:28:42;9.13;;;6.70;;
10963;SDS011;5534;48.784;9.190;2023-04-21T10:34:16;9.07;;;6.53;;
10963;SDS011;5534;48.784;9.190;2023-04-21T10:39:29;8.18;;;6.28;;
10963;SDS011;5534;48.784;9.190;2023-04-21T10:45:10;7.18;;;6.05;;
10963;SDS011;5534;48.784;9.190;2023-04-21T10:47:38;6.97;;;5.18;;
10963;SDS011;5534;48.784;9.190;2023-04-21T10:50:10;8.73;;;6.15;;
10963;SDS011;5534;48.784;9.190;2023-04-21T10:52:36;7.18;;;5.60;;
10963;SDS011;5534;48.784;9.190;2023-04-21T10:55:09;7.03;;;5.87;;
10963;SDS011;5534;48.784;9.190;2023-04-21T10:57:37;8.73;;;6.18;;
10963;SDS011;5534;48.784;9.190;2023-04-21T11:00:06;7.95;;;5.68;;
10963;SDS011;5534;48.784;9.190;2023-04-21T11:02:33;6.88;;;5.63;;
10963;SDS011;5534;48.784;9.190;2023-04-21T11:05:00;7.32;;;5.43;;
10963;SDS011;5534;48.784;9.190;2023-04-21T11:07:26;8.20;;;5.22;;
10963;SDS011;5534;48.784;9.190;2023-04-21T11:09:58;7.35;;;5.18;;
10963;SDS011;5534;48.784;9.190;2023-04-21T11:12:26;6.28;;;5.07;;
10963;SDS011;5534;48.784;9.190;2023-04-21T11:14:54;7.35;;;5.18;;
10963;SDS011;5534;48.784;9.190;2023-04-21T11:17:20;7.35;;;5.00;;
10963;SDS011;5534;48.784;9.190;2023-04-21T11:19:49;7.35;;;5.00;;
10963;SDS011;5534;48.784;9.190;2023-04-21T11:22:18;6.03;;;5.07;;
10963;SDS011;5534;48.784;9.190;2023-04-21T11:24:45;5.82;;;4.85;;
10963;SDS011;5534;48.784;9.190;2023-04-21T11:27:12;6.93;;;4.40;;
10963;SDS011;5534;48.784;9.190;2023-04-21T11:29:39;6.70;;;4.60;;
10963;SDS011;5534;48.784;9.190;2023-04-21T11:32:06;5.30;;;4.30;;
10963;SDS011;5534;48.784;9.190;2023-04-21T11:34:35;5.65;;;4.25;;
10963;SDS011;5534;48.784;9.190;2023-04-21T11:37:02;4.95;;;4.15;;
10963;SDS011;5534;48.784;9.190;2023-04-21T11:39:28;6.45;;;4.93;;
10963;SDS011;5534;48.784;9.190;2023-04-21T11:41:54;6.35;;;4.95;;
10963;SDS011;5534;48.784;9.190;2023-04-21T11:47:18;5.18;;;4.07;;
10963;SDS011;5534;48.784;9.190;2023-04-21T11:49:47;6.10;;;4.63;;
10963;SDS011;5534;48.784;9.190;2023-04-21T11:52:20;5.43;;;4.82;;
10963;SDS011;5534;48.784;9.190;2023-04-21T11:54:46;6.40;;;4.55;;
10963;SDS011;5534;48.784;9.190;2023-04-21T11:57:12;5.55;;;4.78;;
10963;SDS011;5534;48.784;9.190;2023-04-21T11:59:41;6.45;;;5.03;;
10963;SDS011;5534;48.784;9.190;2023-04-21T12:02:12;6.20;;;4.38;;
10963;SDS011;5534;48.784;9.190;2023-04-21T12:04:55;5.78;;;4.70;;
10963;SDS011;5534;48.784;9.190;2023-04-21T12:07:26;6.95;;;4.63;;
10963;SDS011;5534;48.784;9.190;2023-04-21T12:09:54;5.30;;;4.00;;
10963;SDS011;5534;48.784;9.190;2023-04-21T12:12:21;6.68;;;5.03;;
10963;SDS011;5534;48.784;9.190;2023-04-21T12:14:50;6.43;;;4.43;;
10963;SDS011;5534;48.784;9.190;2023-04-21T12:17:17;5.63;;;3.95;;
10963;SDS011;5534;48.784;9.190;2023-04-21T12:19:44;7.25;;;4.40;;
10963;SDS011;5534;48.784;9.190;2023-04-21T12:22:16;6.70;;;4.47;;
10963;SDS011;5534;48.784;9.190;2023-04-21T12:24:43;5.47;;;4.43;;
10963;SDS011;5534;48.784;9.190;2023-04-21T12:27:09;5.90;;;4.45;;
10963;SDS011;5534;48.784;9.190;2023-04-21T12:29:35;6.43;;;4.30;;
10963;SDS011;5534;48.784;9.190;2023-04-21T12:32:06;5.65;;;4.10;;
10963;SDS011;5534;48.784;9.190;2023-04-21T12:34:32;4.80;;;3.70;;
10963;SDS011;5534;48.784;9.190;2023-04-21T12:36:58;5.50;;;3.92;;
10963;SDS011;5534;48.784;9.190;2023-04-21T12:39:25;4.82;;;3.53;;
10963;SDS011;5534;48.784;9.190;2023-04-21T12:41:51;4.20;;;3.55;;
10963;SDS011;5534;48.784;9.190;2023-04-21T12:44:16;3.97;;;3.58;;
10963;SDS011;5534;48.784;9.190;2023-04-21T12:46:42;6.43;;;4.93;;
10963;SDS011;5534;48.784;9.190;2023-04-21T12:49:08;3.50;;;3.17;;
10963;SDS011;5534;48.784;9.190;2023-04-21T12:51:35;3.47;;;3.00;;
10963;SDS011;5534;48.784;9.190;2023-04-21T12:54:01;3.78;;;3.15;;
10963;SDS011;5534;48.784;9.190;2023-04-21T12:56:27;3.67;;;3.08;;
10963;SDS011;5534;48.784;9.190;2023-04-21T12:58:53;3.15;;;2.85;;
10963;SDS011;5534;48.784;9.190;2023-04-21T13:01:20;4.30;;;3.08;;
10963;SDS011;5534;48.784;9.190;2023-04-21T13:03:46;4.00;;;3.05;;
10963;SDS011;5534;48.784;9.190;2023-04-21T13:06:11;3.75;;;2.80;;
10963;SDS011;5534;48.784;9.190;2023-04-21T13:08:37;3.83;;;2.85;;
10963;SDS011;5534;48.784;9.190;2023-04-21T13:11:03;4.20;;;3.00;;
10963;SDS011;5534;48.784;9.190;2023-04-21T13:13:29;3.42;;;2.70;;
10963;SDS011;5534;48.784;9.190;2023-04-21T13:15:55;3.05;;;2.53;;
10963;SDS011;5534;48.784;9.190;2023-04-21T13:18:21;5.82;;;2.92;;
10963;SDS011;5534;48.784;9.190;2023-04-21T13:20:47;6.75;;;2.95;;
10963;SDS011;5534;48.784;9.190;2023-04-21T13:23:12;3.15;;;2.53;;
10963;SDS011;5534;48.784;9.190;2023-04-21T13:25:39;3.63;;;3.05;;
10963;SDS011;5534;48.784;9.190;2023-04-21T13:28:05;5.15;;;2.88;;
10963;SDS011;5534;48.784;9.190;2023-04-21T13:30:32;3.13;;;2.63;;
10963;SDS011;5534;48.784;9.190;2023-04-21T13:32:58;3.72;;;2.80;;
10963;SDS011;5534;48.784;9.190;2023-04-21T13:35:25;2.70;;;2.50;;
10963;SDS011;5534;48.784;9.190;2023-04-21T13:37:50;2.80;;;2.50;;
10963;SDS011;5534;48.784;9.190;2023-04-21T13:40:16;2.80;;;2.50;;
10963;SDS011;5534;48.784;9.190;2023-04-21T13:42:42;3.40;;;2.50;;
10963;SDS011;5534;48.784;9.190;2023-04-21T13:45:09;3.80;;;2.60;;
10963;SDS011;5534;48.784;9.190;2023-04-21T13:47:35;5.10;;;2.58;;
10963;SDS011;5534;48.784;9.190;2023-04-21T13:50:01;2.60;;;2.40;;
10963;SDS011;5534;48.784;9.190;2023-04-21T13:52:27;2.83;;;2.33;;
10963;SDS011;5534;48.784;9.190;2023-04-21T13:54:53;2.80;;;2.47;;
10963;SDS011;5534;48.784;9.190;2023-04-21T13:57:19;3.80;;;2.17;;
10963;SDS011;5534;48.784;9.190;2023-04-21T13:59:45;2.38;;;2.17;;
10963;SDS011;5534;48.784;9.190;2023-04-21T14:02:11;3.08;;;2.40;;
10963;SDS011;5534;48.784;9.190;2023-04-21T14:04:37;2.88;;;2.17;;
10963;SDS011;5534;48.784;9.190;2023-04-21T14:07:03;3.70;;;2.17;;
10963;SDS011;5534;48.784;9.190;2023-04-21T14:09:30;2.90;;;2.20;;
10963;SDS011;5534;48.784;9.190;2023-04-21T14:11:56;2.60;;;2.03;;
10963;SDS011;5534;48.784;9.190;2023-04-21T14:14:34;2.83;;;2.35;;
10963;SDS011;5534;48.784;9.190;2023-04-21T14:17:06;3.22;;;2.42;;
10963;SDS011;5534;48.784;9.190;2023-04-21T14:19:32;2.60;;;2.40;;
10963;SDS011;5534;48.784;9.190;2023-04-21T14:21:58;3.53;;;2.42;;
10963;SDS011;5534;48.784;9.190;2023-04-21T14:24:24;2.33;;;1.98;;
10963;SDS011;5534;48.784;9.190;2023-04-21T14:26:58;3.58;;;2.25;;
10963;SDS011;5534;48.784;9.190;2023-04-21T14:29:24;2.47;;;2.25;;
10963;SDS011;5534;48.784;9.190;2023-04-21T14:31:50;2.55;;;2.22;;
10963;SDS011;5534;48.784;9.190;2023-04-21T14:34:18;2.55;;;2.17;;
10963;SDS011;5534;48.784;9.190;2023-04-21T14:36:43;2.40;;;2.20;;
10963;SDS011;5534;48.784;9.190;2023-04-21T14:39:13;2.03;;;1.85;;
10963;SDS011;5534;48.784;9.190;2023-04-21T14:41:46;2.78;;;1.80;;
10963;SDS011;5534;48.784;9.190;2023-04-21T14:44:17;2.50;;;2.15;;
10963;SDS011;5534;48.784;9.190;2023-04-21T14:46:43;2.03;;;1.75;;
10963;SDS011;5534;48.784;9.190;2023-04-21T14:49:09;2.63;;;2.00;;
10963;SDS011;5534;48.784;9.190;2023-04-21T14:51:37;2.65;;;2.20;;
10963;SDS011;5534;48.784;9.190;2023-04-21T14:54:06;1.75;;;1.40;;
10963;SDS011;5534;48.784;9.190;2023-04-21T14:56:33;1.20;;;1.10;;
10963;SDS011;5534;48.784;9.190;2023-04-21T14:58:58;3.08;;;1.90;;
10963;SDS011;5534;48.784;9.190;2023-04-21T15:01:24;1.30;;;1.20;;